Time;durP1;ratioP1;P1;durP2;ratioP2;P2;SDS_P1;SDS_P2;PMS_P1;PMS_P2;Temp;Humidity;BMP_temperature;BMP_pressure;BME280_temperature;BME280_humidity;BME280_pressure;Samples;Min_cycle;Max_cycle;Signal;HPM_P1;HPM_P2
2023/08/20 00:01:52;;;;;;;11.57;8.63;;;23.30;90.70;;;23.00;78.16;98253.81;4934266;29;20458;-74
2023/08/20 00:04:20;;;;;;;9.37;8.33;;;23.20;90.80;;;22.91;78.90;98242.63;4935385;29;20457;-73
2023/08/20 00:06:48;;;;;;;9.00;8.17;;;23.10;91.00;;;22.64;79.61;98200.72;4936177;29;20499;-74
2023/08/20 00:09:15;;;;;;;14.43;9.10;;;23.00;91.20;;;22.96;79.08;98249.97;4953510;28;20879;-73
2023/08/20 00:11:42;;;;;;;9.37;8.43;;;23.10;91.20;;;22.84;79.33;98237.44;4943120;29;20496;-73
2023/08/20 00:14:16;;;;;;;9.07;8.27;;;23.00;91.20;;;22.93;79.55;98245.91;4941907;28;20523;-73
2023/08/20 00:16:47;;;;;;;9.23;8.33;;;23.00;91.30;;;23.02;79.41;98251.59;4943421;28;20467;-74
2023/08/20 00:19:15;;;;;;;10.77;9.07;;;23.10;91.40;;;23.05;79.90;98242.72;4935681;29;20459;-72
2023/08/20 00:21:44;;;;;;;11.90;8.67;;;23.10;91.50;;;23.10;78.96;98233.59;4934737;29;20444;-73
2023/08/20 00:24:13;;;;;;;9.67;8.70;;;23.20;91.30;;;22.93;80.15;98240.38;4942133;29;20465;-73
2023/08/20 00:26:41;;;;;;;10.00;8.33;;;23.10;91.50;;;22.84;80.42;98234.69;4951373;28;20960;-73
2023/08/20 00:29:08;;;;;;;9.43;8.60;;;23.00;91.60;;;22.99;79.56;98239.22;4950283;29;20592;-72
2023/08/20 00:31:35;;;;;;;9.50;8.60;;;23.10;91.50;;;23.11;78.46;98230.53;4953417;29;20494;-73
2023/08/20 00:34:04;;;;;;;10.20;9.20;;;23.20;91.30;;;23.11;78.33;98236.03;4947710;28;20454;-72
2023/08/20 00:36:32;;;;;;;11.97;9.50;;;23.20;91.20;;;23.11;78.23;98233.28;4945751;28;20483;-72
2023/08/20 00:38:59;;;;;;;9.83;9.03;;;23.30;91.10;;;23.11;78.10;98233.28;4950005;29;20473;-72
2023/08/20 00:41:26;;;;;;;9.17;8.37;;;23.30;91.00;;;23.16;77.81;98240.69;4936722;29;20572;-71
2023/08/20 00:43:53;;;;;;;10.10;8.80;;;23.30;91.10;;;23.20;77.56;98233.44;4936646;29;20451;-72
2023/08/20 00:46:20;;;;;;;10.17;9.27;;;23.30;91.00;;;23.14;77.97;98229.97;4953738;28;20544;-71
2023/08/20 00:48:47;;;;;;;10.70;9.70;;;23.40;91.10;;;23.16;78.25;98235.16;4945652;29;20998;-72
2023/08/20 00:51:16;;;;;;;10.33;9.17;;;23.30;91.20;;;23.06;78.64;98234.19;4934389;29;20576;-72
2023/08/20 00:53:43;;;;;;;9.80;8.93;;;23.30;91.10;;;23.11;78.80;98243.50;4933802;29;20511;-74
2023/08/20 00:56:10;;;;;;;9.33;8.43;;;23.30;91.20;;;23.10;78.52;98244.63;4933796;29;20956;-73
2023/08/20 00:58:37;;;;;;;11.57;9.67;;;23.30;91.20;;;23.02;78.82;98248.84;4934289;29;20463;-72
2023/08/20 01:01:05;;;;;;;11.47;8.90;;;23.20;91.20;;;22.97;79.47;98237.84;4956490;28;20592;-72
2023/08/20 01:03:32;;;;;;;12.03;9.80;;;23.20;91.40;;;22.83;79.74;98230.31;4965423;28;20945;-71
2023/08/20 01:06:13;;;;;;;12.43;9.57;;;23.10;91.40;;;22.83;79.39;98235.81;4956154;29;20482;-71
2023/08/20 01:08:43;;;;;;;11.03;10.07;;;23.10;91.30;;;22.83;79.28;98227.53;4949841;29;20457;-72
2023/08/20 01:11:18;;;;;;;11.40;8.80;;;23.10;91.30;;;22.77;79.26;98237.78;4936918;29;20521;-72
2023/08/20 01:13:46;;;;;;;11.33;9.40;;;23.00;91.20;;;22.74;80.06;98237.53;4952635;29;20513;-72
2023/08/20 01:16:13;;;;;;;11.17;9.80;;;22.90;91.40;;;22.63;80.66;98236.81;4945377;29;20543;-72
2023/08/20 01:18:40;;;;;;;9.57;8.70;;;22.80;91.60;;;22.58;81.46;98239.59;4942183;29;21023;-72
2023/08/20 01:21:21;;;;;;;11.27;8.97;;;22.70;91.90;;;22.38;82.15;98243.34;4940605;29;20522;-73
2023/08/20 01:24:18;;;;;;;9.90;9.20;;;22.60;92.10;;;22.28;82.93;98247.81;4949167;29;20464;-72
2023/08/20 01:27:02;;;;;;;10.40;9.43;;;22.50;92.40;;;22.21;83.28;98252.81;4939191;28;20897;-72
2023/08/20 01:29:31;;;;;;;10.90;9.20;;;22.40;92.50;;;22.15;83.46;98259.47;4953054;29;20454;-71
2023/08/20 01:31:59;;;;;;;10.30;9.40;;;22.30;92.70;;;22.29;82.52;98254.97;4964578;28;21016;-72
2023/08/20 01:34:27;;;;;;;9.70;8.90;;;22.40;92.60;;;22.20;82.60;98256.66;4940896;29;20459;-73
2023/08/20 01:36:54;;;;;;;10.70;9.77;;;22.30;92.50;;;22.26;82.31;98261.03;4934527;29;20471;-72
2023/08/20 01:39:21;;;;;;;9.70;8.87;;;22.40;92.60;;;22.32;81.70;98265.38;4941024;29;20456;-72
2023/08/20 01:41:48;;;;;;;10.43;9.43;;;22.40;92.30;;;22.32;81.44;98268.13;4940601;28;20470;-73
2023/08/20 01:44:15;;;;;;;9.60;8.63;;;22.40;92.20;;;22.12;82.40;98265.56;4941692;29;20868;-72
2023/08/20 01:46:44;;;;;;;10.60;9.70;;;22.30;92.30;;;21.95;83.35;98269.50;4941997;28;20470;-74
2023/08/20 01:49:11;;;;;;;10.27;9.30;;;22.10;92.60;;;21.87;83.82;98267.34;4934376;29;20464;-74
2023/08/20 01:51:38;;;;;;;10.87;9.70;;;22.10;92.90;;;22.03;83.22;98274.41;4933156;29;20460;-72
2023/08/20 01:54:06;;;;;;;10.20;9.40;;;22.10;92.90;;;22.09;83.33;98275.19;4948720;28;20463;-72
2023/08/20 01:56:33;;;;;;;10.47;9.43;;;22.10;93.00;;;22.03;83.36;98266.13;4943050;29;20965;-72
2023/08/20 01:59:01;;;;;;;11.10;10.00;;;22.20;92.90;;;21.89;84.32;98273.38;4947301;28;20456;-73
2023/08/20 02:01:28;;;;;;;10.40;9.33;;;22.10;93.20;;;21.94;84.23;98273.38;4933854;29;20459;-73
2023/08/20 02:03:57;;;;;;;10.33;9.30;;;22.10;93.20;;;21.95;84.00;98272.25;4942114;29;20947;-71
2023/08/20 02:06:24;;;;;;;10.20;9.10;;;22.10;93.10;;;21.76;85.00;98272.91;4957084;28;20542;-73
2023/08/20 02:08:51;;;;;;;10.27;9.20;;;22.00;93.30;;;21.78;85.29;98269.88;4951418;28;20631;-73
2023/08/20 02:11:19;;;;;;;10.03;8.90;;;21.90;93.50;;;21.80;84.83;98264.91;4935836;28;20471;-72
2023/08/20 02:13:46;;;;;;;11.50;9.87;;;22.00;93.50;;;21.72;85.09;98263.56;4959699;28;20510;-73
2023/08/20 02:16:13;;;;;;;10.47;9.57;;;22.00;93.40;;;21.67;85.58;98266.34;4952221;28;20518;-72
2023/08/20 02:18:40;;;;;;;10.90;9.80;;;21.90;93.40;;;21.67;85.74;98265.53;4947693;29;20463;-72
2023/08/20 02:21:09;;;;;;;10.17;9.23;;;21.90;93.70;;;21.59;85.75;98269.66;4932979;29;20459;-72
2023/08/20 02:23:35;;;;;;;10.43;9.40;;;21.80;93.60;;;21.48;85.81;98275.22;4933274;29;20542;-73
2023/08/20 02:26:03;;;;;;;10.37;9.47;;;21.80;93.50;;;21.40;85.74;98274.97;4933301;29;20481;-72
2023/08/20 02:28:30;;;;;;;12.10;9.30;;;21.70;93.50;;;21.35;86.92;98281.31;4950459;29;20485;-72
2023/08/20 02:30:59;;;;;;;9.80;8.90;;;21.60;93.90;;;21.33;86.73;98283.50;4967201;28;21911;-72
2023/08/20 02:33:26;;;;;;;9.13;8.23;;;21.60;94.10;;;21.26;87.38;98282.97;4935416;29;20505;-73
2023/08/20 02:35:54;;;;;;;11.30;8.43;;;21.50;94.30;;;21.20;87.51;98279.41;4933293;29;20526;-73
2023/08/20 02:38:22;;;;;;;10.73;9.70;;;21.50;94.30;;;21.25;87.58;98287.66;4932800;29;20462;-73
2023/08/20 02:40:49;;;;;;;11.40;9.17;;;21.40;94.50;;;21.18;87.89;98282.47;4932929;29;20460;-72
2023/08/20 02:43:17;;;;;;;10.20;9.30;;;21.40;94.50;;;21.12;88.79;98283.56;4933058;29;20951;-72
2023/08/20 02:45:44;;;;;;;10.97;9.37;;;21.40;95.00;;;21.12;88.31;98283.56;4933707;29;20504;-73
2023/08/20 02:48:12;;;;;;;10.93;9.93;;;21.30;95.00;;;21.12;88.25;98283.56;4947739;28;20454;-73
2023/08/20 02:50:38;;;;;;;10.00;9.00;;;21.30;95.10;;;21.08;87.97;98282.47;4939735;29;20987;-72
2023/08/20 02:53:05;;;;;;;12.77;9.80;;;21.30;94.90;;;21.02;88.40;98278.09;4931399;29;20471;-71
2023/08/20 02:55:35;;;;;;;11.03;10.03;;;21.30;95.00;;;21.01;88.41;98270.97;4947937;28;20454;-72
2023/08/20 02:58:04;;;;;;;10.27;9.43;;;21.30;95.10;;;20.91;89.18;98267.13;4947992;29;20466;-72
2023/08/20 03:00:31;;;;;;;10.60;9.70;;;21.20;95.20;;;20.86;89.44;98269.91;4940784;29;20537;-72
2023/08/20 03:02:58;;;;;;;10.97;9.97;;;21.10;95.40;;;21.03;89.01;98275.06;4953015;28;20560;-72
2023/08/20 03:05:25;;;;;;;9.83;9.00;;;21.10;95.90;;;20.95;89.31;98270.97;4936103;28;20571;-72
2023/08/20 03:07:53;;;;;;;10.60;9.30;;;21.10;95.70;;;20.88;89.37;98272.34;4933089;29;20529;-72
2023/08/20 03:10:20;;;;;;;10.93;9.83;;;21.10;95.60;;;20.85;89.51;98273.75;4947832;29;20813;-72
2023/08/20 03:12:48;;;;;;;12.10;9.80;;;21.00;95.80;;;20.83;89.56;98269.63;4935981;28;20533;-72
2023/08/20 03:15:16;;;;;;;10.10;9.10;;;21.00;95.80;;;20.69;90.46;98261.91;4933214;29;20461;-72
2023/08/20 03:17:43;;;;;;;11.80;10.60;;;21.00;96.00;;;20.65;90.56;98272.63;4938051;29;20466;-73
2023/08/20 03:20:11;;;;;;;10.20;9.30;;;21.00;96.10;;;20.69;90.68;98274.81;4947871;29;20466;-72
2023/08/20 03:22:39;;;;;;;10.87;9.97;;;20.90;96.10;;;20.67;90.87;98270.41;4963765;28;21119;-73
2023/08/20 03:25:08;;;;;;;11.57;10.13;;;20.90;96.40;;;20.20;91.01;98219.41;4937145;29;20466;-72
2023/08/20 03:27:35;;;;;;;11.03;9.90;;;20.90;96.40;;;20.61;91.18;98268.78;4966496;28;20970;-72
2023/08/20 03:30:05;;;;;;;10.70;9.60;;;20.80;96.60;;;20.63;90.92;98266.59;4955393;28;20481;-71
2023/08/20 03:32:33;;;;;;;9.63;8.60;;;20.80;96.70;;;20.62;91.77;98278.66;4935606;29;20444;-73
2023/08/20 03:35:01;;;;;;;10.20;9.20;;;20.80;97.00;;;20.52;91.70;98281.41;4950562;29;20516;-72
2023/08/20 03:37:28;;;;;;;10.70;9.40;;;20.70;97.00;;;20.50;92.34;98278.13;4939248;29;20541;-72
2023/08/20 03:39:56;;;;;;;10.63;9.70;;;20.70;97.70;;;20.69;91.29;98274.81;4955088;28;20517;-72
2023/08/20 03:42:23;;;;;;;11.80;9.80;;;20.80;97.30;;;20.63;91.17;98277.56;4953459;29;20450;-72
2023/08/20 03:44:50;;;;;;;12.83;9.80;;;20.80;96.90;;;20.61;91.38;98268.78;4943668;28;20458;-72
2023/08/20 03:47:20;;;;;;;13.10;9.90;;;20.80;96.70;;;20.66;90.79;98276.19;4936776;29;20975;-72
2023/08/20 03:49:48;;;;;;;10.33;9.37;;;20.90;96.70;;;20.68;90.97;98279.47;4948150;29;20825;-72
2023/08/20 03:52:15;;;;;;;11.60;9.73;;;20.90;96.60;;;20.65;91.33;98286.34;4935394;29;20468;-72
2023/08/20 03:54:43;;;;;;;10.67;9.67;;;20.90;96.70;;;20.65;90.93;98291.03;4953100;28;20455;-73
2023/08/20 03:57:10;;;;;;;17.53;10.07;;;20.90;96.50;;;20.63;91.24;98283.06;4946645;28;20473;-73
2023/08/20 03:59:37;;;;;;;10.80;9.80;;;20.90;96.70;;;20.65;91.24;98289.09;4936783;29;20512;-73
2023/08/20 04:02:05;;;;;;;11.30;10.30;;;20.90;96.70;;;20.63;91.59;98294.03;4934054;29;20454;-72
2023/08/20 04:04:33;;;;;;;10.23;9.23;;;20.90;96.80;;;20.56;92.23;98293.50;4958020;28;20462;-73
2023/08/20 04:07:00;;;;;;;10.63;9.53;;;20.90;96.90;;;20.57;92.08;98289.66;4935804;29;20553;-72
2023/08/20 04:09:27;;;;;;;12.03;10.93;;;20.90;96.90;;;20.60;92.07;98300.06;4944187;29;20464;-71
2023/08/20 04:11:55;;;;;;;11.77;10.57;;;20.80;97.20;;;20.62;92.08;98286.91;4950478;28;20938;-72
2023/08/20 04:14:22;;;;;;;9.60;8.80;;;20.80;97.20;;;20.58;92.49;98296.78;4945134;29;20830;-71
2023/08/20 04:16:49;;;;;;;11.07;9.30;;;20.90;97.20;;;20.65;92.15;98291.81;4935556;29;20457;-72
2023/08/20 04:19:16;;;;;;;13.23;9.70;;;20.90;97.40;;;20.75;91.85;98298.41;4949371;28;20452;-72
2023/08/20 04:21:45;;;;;;;10.83;9.73;;;20.80;98.00;;;20.74;91.36;98289.34;4933194;29;20516;-73
2023/08/20 04:24:12;;;;;;;10.10;9.10;;;20.70;97.70;;;20.74;91.61;98296.78;4938931;29;20518;-72
2023/08/20 04:26:39;;;;;;;10.40;9.40;;;20.70;98.10;;;20.82;90.99;98295.44;4946155;29;20496;-73
2023/08/20 04:29:06;;;;;;;10.97;9.97;;;20.70;97.90;;;20.75;91.71;98301.16;4948955;29;20457;-71
2023/08/20 04:31:34;;;;;;;11.13;10.03;;;20.70;98.30;;;20.76;91.82;98298.13;4951569;28;20488;-73
2023/08/20 04:34:01;;;;;;;14.77;10.50;;;20.70;98.30;;;20.79;91.45;98297.59;4949273;28;20603;-73
2023/08/20 04:36:28;;;;;;;10.50;9.60;;;20.70;98.50;;;20.90;90.31;98284.72;4935177;29;20463;-73
2023/08/20 04:38:57;;;;;;;11.00;9.97;;;20.80;98.00;;;20.98;90.40;98305.28;4935191;29;21011;-73
2023/08/20 04:41:24;;;;;;;11.13;10.00;;;20.90;97.40;;;21.06;89.92;98296.47;4934410;29;20453;-72
2023/08/20 04:43:51;;;;;;;11.33;10.20;;;21.00;97.10;;;21.20;89.17;98301.38;4934993;29;20479;-72
2023/08/20 04:46:18;;;;;;;10.70;9.60;;;21.10;97.00;;;21.42;87.40;98305.75;4941183;29;20815;-73
2023/08/20 04:48:45;;;;;;;12.33;9.27;;;21.30;96.20;;;21.75;85.22;98307.00;4960635;28;20467;-71
2023/08/20 04:51:12;;;;;;;11.10;10.00;;;21.60;95.10;;;21.57;85.87;98302.09;4940466;29;20464;-71
2023/08/20 04:53:39;;;;;;;10.23;9.20;;;22.00;94.20;;;21.69;84.69;98308.13;4937141;28;20695;-70
2023/08/20 04:56:08;;;;;;;10.40;9.50;;;22.20;93.40;;;21.79;83.49;98302.59;4952600;29;20982;-72
2023/08/20 04:58:35;;;;;;;10.83;9.73;;;22.30;92.80;;;21.94;82.63;98307.19;4958887;28;20522;-72
2023/08/20 05:01:02;;;;;;;9.27;8.37;;;22.50;92.50;;;22.13;81.75;98311.22;4942387;29;20508;-72
2023/08/20 05:03:30;;;;;;;10.33;9.23;;;22.70;92.20;;;22.58;79.82;98309.28;4952361;28;20519;-72
2023/08/20 05:05:57;;;;;;;11.23;9.97;;;23.10;91.90;;;22.89;77.46;98310.91;4947339;29;20935;-72
2023/08/20 05:08:24;;;;;;;10.07;9.07;;;23.30;91.40;;;22.66;77.92;98315.25;4959870;28;20506;-74
2023/08/20 05:10:52;;;;;;;10.03;9.17;;;23.20;91.20;;;22.73;77.52;98318.50;4934925;29;20558;-73
2023/08/20 05:13:21;;;;;;;10.57;9.60;;;23.30;91.10;;;23.03;75.71;98320.16;4951823;29;20504;-73
2023/08/20 05:15:48;;;;;;;12.40;9.90;;;23.60;90.80;;;23.25;74.83;98324.34;4954870;28;20545;-72
2023/08/20 05:18:15;;;;;;;9.40;8.40;;;23.80;90.60;;;23.63;73.05;98329.22;4961061;28;20467;-72
2023/08/20 05:20:42;;;;;;;12.07;9.87;;;24.20;90.30;;;23.61;72.43;98326.72;4944782;29;20509;-72
2023/08/20 05:23:09;;;;;;;10.13;9.20;;;24.40;89.80;;;23.70;72.26;98317.81;4946155;28;20466;-71
2023/08/20 05:25:36;;;;;;;12.40;9.87;;;24.40;89.60;;;23.80;71.50;98330.66;4956463;28;20455;-72
2023/08/20 05:28:04;;;;;;;10.20;9.20;;;24.60;89.10;;;24.30;69.81;98325.56;4934107;29;21070;-72
2023/08/20 05:30:32;;;;;;;10.87;9.97;;;24.80;88.80;;;24.42;69.09;98332.59;4933507;29;20455;-73
2023/08/20 05:33:00;;;;;;;10.67;8.90;;;25.00;88.10;;;25.10;66.75;98341.47;4933495;29;20953;-72
2023/08/20 05:35:28;;;;;;;9.83;8.93;;;25.60;87.30;;;25.21;65.75;98346.78;4948754;28;20565;-73
2023/08/20 05:37:55;;;;;;;10.13;9.10;;;26.00;86.30;;;24.92;67.21;98345.06;4961232;28;20456;-72
2023/08/20 05:40:22;;;;;;;9.07;8.33;;;26.00;85.70;;;25.09;66.85;98341.75;4936081;28;20516;-72
2023/08/20 05:42:50;;;;;;;9.63;8.67;;;25.80;86.00;;;25.27;65.91;98338.09;4933676;29;20453;-72
2023/08/20 05:45:17;;;;;;;9.97;9.00;;;26.10;85.60;;;25.34;65.98;98345.97;4948082;28;20564;-73
2023/08/20 05:47:46;;;;;;;10.17;9.23;;;26.10;85.60;;;25.41;65.06;98345.59;4937625;28;20544;-73
2023/08/20 05:50:12;;;;;;;9.83;8.93;;;26.00;85.40;;;25.22;65.65;98348.41;4933911;29;20531;-73
2023/08/20 05:52:40;;;;;;;10.97;10.03;;;26.00;85.30;;;25.08;65.84;98346.44;4933318;29;20768;-72
2023/08/20 05:55:08;;;;;;;10.90;9.80;;;25.80;85.10;;;24.52;68.50;98350.94;4947821;29;20490;-73
2023/08/20 05:57:37;;;;;;;11.67;10.47;;;25.30;86.00;;;24.09;69.61;98332.53;4952484;28;20515;-73
2023/08/20 06:00:05;;;;;;;12.17;9.70;;;24.90;86.80;;;23.89;71.06;98331.66;4958121;28;20537;-73
2023/08/20 06:02:32;;;;;;;11.30;10.20;;;24.50;87.50;;;23.76;71.64;98335.94;4951843;29;20555;-73
2023/08/20 06:05:00;;;;;;;12.13;11.03;;;24.20;88.10;;;23.86;71.77;98337.75;4939887;28;20461;-74
2023/08/20 06:07:27;;;;;;;12.37;11.27;;;24.10;88.50;;;23.83;71.44;98336.41;4949100;28;20478;-72
2023/08/20 06:09:55;;;;;;;11.93;10.83;;;24.20;88.50;;;23.71;71.47;98330.50;4954942;28;20479;-73
2023/08/20 06:12:22;;;;;;;11.17;10.20;;;24.10;88.50;;;23.77;72.04;98335.66;4937729;29;20511;-73
2023/08/20 06:14:49;;;;;;;11.80;10.60;;;24.00;88.90;;;23.94;70.34;98328.81;4933601;29;21239;-73
2023/08/20 06:17:16;;;;;;;11.50;10.40;;;24.20;88.40;;;23.71;71.12;98328.53;4948025;28;20465;-71
2023/08/20 06:19:44;;;;;;;12.23;11.13;;;24.10;88.20;;;23.69;71.51;98336.28;4940904;29;20463;-73
2023/08/20 06:22:13;;;;;;;11.37;10.37;;;24.00;88.60;;;23.92;70.60;98326.34;4931220;29;20461;-73
2023/08/20 06:24:40;;;;;;;10.57;9.57;;;24.10;89.00;;;23.60;71.62;98324.28;4951853;28;22097;-74
2023/08/20 06:27:07;;;;;;;11.43;10.30;;;24.00;88.50;;;23.56;72.17;98323.22;4951061;29;20496;-73
2023/08/20 06:29:34;;;;;;;11.80;10.73;;;23.90;88.80;;;23.54;72.43;98323.53;4942108;29;20590;-73
2023/08/20 06:32:01;;;;;;;11.57;10.57;;;23.80;88.90;;;23.79;71.42;98320.75;4933172;29;20478;-72
2023/08/20 06:34:28;;;;;;;11.90;10.80;;;24.00;89.10;;;24.07;70.47;98326.47;4946987;28;20451;-73
2023/08/20 06:36:56;;;;;;;11.83;10.73;;;24.20;88.70;;;23.81;71.39;98326.78;4962784;28;20451;-73
2023/08/20 06:39:24;;;;;;;12.50;10.87;;;24.10;88.70;;;23.95;71.31;98326.88;4947730;28;20447;-72
2023/08/20 06:41:51;;;;;;;14.70;10.97;;;24.10;88.90;;;24.28;70.23;98324.25;4932549;29;20459;-72
2023/08/20 06:44:18;;;;;;;12.70;10.77;;;24.30;88.70;;;24.54;69.78;98330.19;4935252;29;20498;-73
2023/08/20 06:46:45;;;;;;;11.77;10.80;;;24.60;88.80;;;24.66;68.56;98337.19;4948539;29;20539;-72
2023/08/20 06:49:13;;;;;;;12.27;11.07;;;24.80;88.30;;;24.54;68.39;98335.72;4948141;28;20875;-73
2023/08/20 06:51:40;;;;;;;11.27;10.37;;;24.80;88.00;;;24.78;68.15;98345.84;4946902;28;20944;-73
2023/08/20 06:54:07;;;;;;;12.70;11.53;;;24.90;87.90;;;24.72;68.26;98344.28;4933019;29;20460;-72
2023/08/20 06:56:36;;;;;;;11.20;10.10;;;24.90;87.80;;;24.86;67.23;98341.56;4934480;29;20499;-73
2023/08/20 06:59:03;;;;;;;10.93;10.00;;;25.10;87.60;;;24.94;67.36;98335.38;4961898;28;20498;-72
2023/08/20 07:01:31;;;;;;;10.87;9.90;;;25.10;87.50;;;25.13;66.26;98343.59;4939713;29;20551;-73
2023/08/20 07:03:58;;;;;;;12.33;10.70;;;25.30;87.20;;;24.89;66.83;98350.09;4951114;29;20456;-72
2023/08/20 07:06:25;;;;;;;10.87;9.73;;;25.20;86.90;;;25.18;66.37;98354.56;4944810;29;20790;-73
2023/08/20 07:08:52;;;;;;;10.63;9.73;;;25.30;87.10;;;25.42;65.29;98358.28;4937354;29;20459;-71
2023/08/20 07:11:19;;;;;;;9.67;8.97;;;25.50;86.80;;;25.34;65.63;98364.53;4940787;29;20499;-73
2023/08/20 07:13:48;;;;;;;10.83;10.00;;;25.60;86.50;;;25.04;65.46;98362.00;4946583;28;20463;-72
2023/08/20 07:16:15;;;;;;;11.10;8.87;;;25.40;86.00;;;25.43;64.64;98359.91;4940880;28;20456;-72
2023/08/20 07:18:42;;;;;;;11.40;9.77;;;25.50;86.10;;;25.47;64.37;98355.41;4938860;29;20448;-72
2023/08/20 07:21:09;;;;;;;10.73;9.83;;;25.70;85.60;;;25.74;63.36;98351.88;4947316;29;20458;-72
2023/08/20 07:23:36;;;;;;;9.83;8.97;;;25.80;85.40;;;25.73;63.14;98353.00;4966778;28;20514;-72
2023/08/20 07:26:08;;;;;;;9.70;8.90;;;25.90;85.10;;;26.02;62.63;98356.56;4962445;28;20465;-72
2023/08/20 07:31:23;;;;;;;10.80;8.70;;;26.20;84.40;;;26.15;61.39;98358.50;4934452;29;20546;-72
2023/08/20 07:33:51;;;;;;;11.07;9.93;;;26.40;84.00;;;26.34;61.09;98359.50;4951525;29;20513;-72
2023/08/20 07:36:21;;;;;;;10.00;9.10;;;26.40;83.90;;;26.54;60.69;98375.66;4950414;29;20448;-74
2023/08/20 07:38:49;;;;;;;11.80;9.83;;;26.60;83.80;;;26.37;60.43;98361.66;4936298;29;20546;-73
2023/08/20 07:41:16;;;;;;;10.13;9.33;;;26.60;83.10;;;26.52;60.03;98377.06;4935533;29;20468;-73
2023/08/20 07:43:44;;;;;;;11.03;9.90;;;26.60;83.00;;;26.59;60.34;98369.97;4950692;29;20539;-73
2023/08/20 07:46:11;;;;;;;10.10;9.10;;;26.60;83.30;;;26.98;58.74;98372.41;4936270;29;20466;-73
2023/08/20 07:48:40;;;;;;;10.70;9.73;;;26.80;82.70;;;26.86;58.41;98371.03;4950659;28;20516;-74
2023/08/20 07:51:09;;;;;;;9.93;9.03;;;26.90;82.10;;;26.94;58.81;98371.41;4935297;29;20465;-72
2023/08/20 07:53:36;;;;;;;10.17;9.17;;;26.90;82.50;;;26.93;58.60;98373.38;4941458;29;20461;-72
2023/08/20 07:56:05;;;;;;;11.07;10.07;;;26.90;82.10;;;27.23;57.67;98372.91;4969373;28;20452;-73
2023/08/20 07:58:32;;;;;;;10.07;9.27;;;27.00;81.90;;;27.38;57.55;98366.94;4966418;28;20636;-73
2023/08/20 08:00:59;;;;;;;9.93;9.03;;;27.20;81.90;;;27.55;56.99;98373.75;4947619;29;20461;-73
2023/08/20 08:03:27;;;;;;;10.57;9.57;;;27.40;81.50;;;27.37;56.40;98361.72;4953858;28;20528;-72
2023/08/20 08:05:56;;;;;;;15.90;8.63;;;27.40;80.50;;;27.54;56.07;98366.56;4935918;29;20461;-74
2023/08/20 08:08:23;;;;;;;9.87;8.97;;;27.50;80.50;;;27.71;55.36;98363.84;4934573;29;20561;-73
2023/08/20 08:10:51;;;;;;;9.97;8.97;;;27.60;80.00;;;27.65;55.60;98362.34;4943610;29;20960;-72
2023/08/20 08:13:21;;;;;;;9.77;8.97;;;27.60;79.90;;;27.79;55.04;98372.50;4935314;29;20568;-73
2023/08/20 08:15:48;;;;;;;10.67;9.60;;;27.60;79.60;;;27.72;54.97;98370.19;4935605;29;20467;-73
2023/08/20 08:18:15;;;;;;;11.20;8.60;;;27.70;79.20;;;27.60;54.45;98370.81;4935666;29;20991;-73
2023/08/20 08:20:43;;;;;;;9.73;8.83;;;27.70;78.30;;;27.62;54.83;98374.09;4935327;29;20531;-74
2023/08/20 08:23:12;;;;;;;9.37;8.50;;;27.70;78.30;;;27.82;53.13;98371.88;4952508;28;20458;-73
2023/08/20 08:25:39;;;;;;;9.23;8.43;;;27.90;77.20;;;27.86;52.98;98373.69;4949548;29;20962;-73
2023/08/20 08:28:07;;;;;;;8.67;7.97;;;27.90;77.00;;;28.21;52.57;98377.72;4948097;28;20979;-73
2023/08/20 08:30:34;;;;;;;8.10;7.40;;;28.10;77.00;;;28.22;52.30;98380.16;4935209;29;20474;-73
2023/08/20 08:33:01;;;;;;;10.40;7.83;;;28.20;76.40;;;28.38;51.19;98382.47;4934740;29;20494;-73
2023/08/20 08:35:28;;;;;;;8.20;7.60;;;28.40;75.70;;;28.41;51.42;98388.19;4935452;29;20513;-73
2023/08/20 08:37:55;;;;;;;8.20;7.50;;;28.40;75.60;;;28.65;51.26;98384.09;4941375;29;20471;-73
2023/08/20 08:40:26;;;;;;;11.23;8.37;;;28.60;75.40;;;28.55;50.75;98382.47;4934519;29;20518;-72
2023/08/20 08:42:54;;;;;;;8.50;7.80;;;28.60;74.40;;;28.89;50.14;98384.78;4934346;29;20463;-73
2023/08/20 08:45:22;;;;;;;8.70;7.90;;;28.80;74.70;;;28.93;49.32;98386.59;4949484;28;20894;-72
2023/08/20 08:47:50;;;;;;;10.60;7.53;;;28.90;73.50;;;28.94;49.69;98393.78;4948724;29;21054;-73
2023/08/20 08:50:18;;;;;;;9.10;8.40;;;28.90;73.80;;;28.91;49.69;98390.84;4935615;28;20514;-72
2023/08/20 08:52:47;;;;;;;8.00;7.40;;;29.00;73.20;;;29.05;49.64;98390.66;4950470;28;20454;-74
2023/08/20 08:55:14;;;;;;;9.07;7.93;;;29.00;73.00;;;29.06;49.60;98395.06;4961685;28;20463;-72
2023/08/20 08:57:42;;;;;;;10.47;8.03;;;29.10;73.10;;;29.18;49.15;98386.03;4955497;28;20507;-73
2023/08/20 09:00:11;;;;;;;9.43;8.53;;;29.20;72.90;;;29.30;49.08;98400.09;4945531;29;20523;-73
2023/08/20 09:02:38;;;;;;;8.67;7.83;;;29.30;72.70;;;29.28;49.13;98388.47;4965776;28;20459;-71
2023/08/20 09:05:07;;;;;;;8.23;7.53;;;29.30;72.50;;;29.03;49.20;98379.84;4947579;29;20950;-71
2023/08/20 09:07:34;;;;;;;8.20;7.53;;;29.20;71.70;;;29.34;48.51;98389.94;4948946;28;20478;-71
2023/08/20 09:10:02;;;;;;;8.37;7.63;;;29.30;71.60;;;29.40;47.51;98387.78;4939674;29;20458;-70
2023/08/20 09:12:35;;;;;;;8.30;7.60;;;29.40;70.40;;;29.49;47.19;98390.56;4938821;29;20959;-71
2023/08/20 09:15:04;;;;;;;8.10;7.40;;;29.40;70.00;;;29.64;46.82;98392.81;4953511;28;20952;-69
2023/08/20 09:17:32;;;;;;;13.33;8.27;;;29.60;69.80;;;29.77;46.15;98390.97;4936896;29;20458;-71
2023/08/20 09:19:59;;;;;;;8.20;7.40;;;29.70;69.60;;;29.86;46.10;98390.94;4941132;28;20526;-71
2023/08/20 09:22:28;;;;;;;9.20;8.40;;;29.80;69.20;;;29.97;46.01;98389.41;4949662;29;20457;-70
2023/08/20 09:24:57;;;;;;;7.87;7.27;;;29.90;69.20;;;30.18;44.30;98391.44;4942152;29;20833;-70
2023/08/20 09:27:24;;;;;;;8.73;7.93;;;30.10;68.00;;;30.11;45.20;98393.94;4936830;29;20510;-69
2023/08/20 09:29:55;;;;;;;12.33;11.10;;;30.10;68.20;;;30.39;45.13;98387.84;4934233;29;20459;-71
2023/08/20 09:32:25;;;;;;;8.50;7.43;;;30.30;67.70;;;30.50;44.26;98388.28;4938651;29;20761;-71
2023/08/20 09:34:55;;;;;;;7.97;7.13;;;30.40;67.70;;;30.11;45.02;98396.72;4945353;28;20450;-71
2023/08/20 09:37:24;;;;;;;8.30;7.37;;;30.30;67.20;;;30.11;45.04;98385.59;4971213;28;20509;-71
2023/08/20 09:39:52;;;;;;;7.20;6.47;;;30.10;66.70;;;30.27;43.11;98374.66;4947434;29;20515;-70
2023/08/20 09:42:19;;;;;;;5.70;5.13;;;30.20;65.40;;;30.56;41.62;98386.91;4951189;29;20533;-72
2023/08/20 09:44:48;;;;;;;8.53;5.83;;;30.40;64.00;;;30.36;41.22;98380.16;4944636;29;20545;-70
2023/08/20 09:47:17;;;;;;;9.60;6.47;;;30.40;63.00;;;30.32;42.84;98382.81;4953140;28;20462;-71
2023/08/20 09:49:48;;;;;;;6.50;5.83;;;30.30;64.00;;;30.53;41.12;98388.38;4942340;28;20460;-71
2023/08/20 09:52:23;;;;;;;10.50;5.70;;;30.50;62.90;;;30.42;40.57;98380.78;4938880;29;20458;-70
2023/08/20 09:55:01;;;;;;;6.03;5.47;;;30.40;61.90;;;30.66;41.16;98380.94;4945584;28;20529;-72
2023/08/20 09:57:34;;;;;;;6.80;6.20;;;30.50;62.30;;;31.05;40.55;98383.53;4942377;29;20464;-72
2023/08/20 10:00:05;;;;;;;9.33;5.70;;;30.90;62.50;;;31.25;39.88;98392.22;4958085;28;20460;-70
2023/08/20 10:02:34;;;;;;;8.40;5.60;;;31.10;61.70;;;31.24;40.05;98379.44;4950975;29;20447;-71
2023/08/20 10:05:04;;;;;;;6.57;5.97;;;31.20;61.50;;;31.25;39.92;98377.47;4939505;28;20459;-70
2023/08/20 10:07:32;;;;;;;7.13;5.87;;;31.30;61.20;;;31.53;39.32;98380.44;4933440;29;20456;-71
2023/08/20 10:10:02;;;;;;;7.83;6.23;;;31.40;60.70;;;31.87;38.56;98380.38;4939820;29;20486;-70
2023/08/20 10:12:30;;;;;;;6.70;6.07;;;31.50;60.40;;;31.94;39.36;98375.00;4936650;29;20472;-71
2023/08/20 10:14:59;;;;;;;7.43;5.63;;;31.60;60.90;;;31.74;38.76;98376.72;4933472;29;20443;-71
2023/08/20 10:17:30;;;;;;;7.03;6.30;;;31.70;60.00;;;31.59;38.80;98376.22;4941421;29;20522;-71
2023/08/20 10:19:59;;;;;;;7.40;6.23;;;31.40;59.60;;;31.87;39.21;98375.56;4945110;29;20475;-71